Time;durP1;ratioP1;P1;durP2;ratioP2;P2;SDS_P1;SDS_P2;PMS_P1;PMS_P2;Temp;Humidity;BMP_temperature;BMP_pressure;BME280_temperature;BME280_humidity;BME280_pressure;Samples;Min_cycle;Max_cycle;Signal;HPM_P1;HPM_P2
2020/12/10 00:00:47;;;;;;;23.18;16.07;;;;;;;-2.07;81.43;98205.88;1797909;79;20866;-74
2020/12/10 00:03:16;;;;;;;24.60;15.80;;;;;;;-2.09;81.53;98205.92;1798123;79;21323;-75
2020/12/10 00:05:43;;;;;;;28.10;17.00;;;;;;;-2.11;81.59;98203.78;1797950;79;21504;-75
2020/12/10 00:08:12;;;;;;;26.52;17.25;;;;;;;-2.11;81.55;98195.88;1797977;79;20977;-75
2020/12/10 00:10:40;;;;;;;23.25;16.05;;;;;;;-2.11;81.56;98194.99;1797835;79;20925;-74
2020/12/10 00:13:07;;;;;;;25.23;15.08;;;;;;;-2.10;81.50;98194.11;1797957;79;20909;-74
2020/12/10 00:15:35;;;;;;;25.90;15.65;;;;;;;-2.10;81.54;98204.63;1797985;79;20945;-74
2020/12/10 00:18:05;;;;;;;28.73;16.95;;;;;;;-2.13;81.58;98191.54;1797913;79;21362;-75
2020/12/10 00:20:32;;;;;;;23.40;16.45;;;;;;;-2.13;81.66;98182.33;1797791;79;21382;-74
2020/12/10 00:23:01;;;;;;;26.55;15.85;;;;;;;-2.13;81.75;98187.59;1797954;79;21471;-75
2020/12/10 00:25:28;;;;;;;31.97;18.37;;;;;;;-2.12;81.79;98202.03;1797962;79;21354;-74
2020/12/10 00:27:56;;;;;;;29.55;16.12;;;;;;;-2.11;81.85;98199.83;1798064;79;21326;-75
2020/12/10 00:30:25;;;;;;;26.17;16.07;;;;;;;-2.09;81.84;98197.16;1797910;79;21352;-76
2020/12/10 00:32:55;;;;;;;30.52;17.87;;;;;;;-2.09;81.80;98201.11;1797972;79;20980;-76
2020/12/10 00:35:23;;;;;;;30.12;16.40;;;;;;;-2.07;81.87;98187.46;1798029;79;20996;-77
2020/12/10 00:37:51;;;;;;;27.65;15.78;;;;;;;-2.06;81.81;98179.99;1797833;79;21024;-77
2020/12/10 00:40:19;;;;;;;28.85;17.82;;;;;;;-2.08;81.76;98192.30;1797970;79;20917;-74
2020/12/10 00:42:47;;;;;;;32.45;17.55;;;;;;;-2.08;81.78;98171.24;1806475;79;22091;-75
2020/12/10 00:45:15;;;;;;;30.17;17.98;;;;;;;-2.10;81.79;98171.28;1815427;78;20928;-75
2020/12/10 00:47:44;;;;;;;29.05;17.45;;;;;;;-2.07;81.85;98165.09;1815498;79;20960;-75
2020/12/10 00:50:12;;;;;;;30.55;18.23;;;;;;;-2.07;81.89;98174.30;1815490;79;21432;-76
2020/12/10 00:52:41;;;;;;;30.85;16.77;;;;;;;-2.04;81.79;98165.88;1815470;79;21063;-74
2020/12/10 00:55:13;;;;;;;30.05;18.90;;;;;;;-2.04;81.86;98171.61;1815574;79;21178;-74
2020/12/10 00:57:42;;;;;;;25.92;16.25;;;;;;;-2.05;81.85;98158.91;1815451;79;20983;-74
2020/12/10 01:00:10;;;;;;;31.70;18.20;;;;;;;-2.05;81.66;98154.95;1815512;79;20936;-75
2020/12/10 01:02:40;;;;;;;30.65;17.40;;;;;;;-2.03;81.75;98153.15;1815452;79;20872;-74
2020/12/10 01:05:09;;;;;;;24.02;14.83;;;;;;;-2.02;81.68;98140.84;1815533;79;21464;-74
2020/12/10 01:07:36;;;;;;;29.18;16.95;;;;;;;-2.05;81.72;98133.02;1815514;79;21178;-75
2020/12/10 01:10:05;;;;;;;37.10;18.70;;;;;;;-2.07;81.72;98137.45;1815505;79;21405;-74
2020/12/10 01:12:33;;;;;;;23.05;15.40;;;;;;;-2.10;81.80;98146.73;1815504;78;20987;-74
2020/12/10 01:15:01;;;;;;;31.10;16.62;;;;;;;-2.08;81.85;98152.82;1815486;79;21011;-75
2020/12/10 01:17:29;;;;;;;28.65;15.63;;;;;;;-2.09;81.85;98140.59;1815590;79;21448;-75
2020/12/10 01:19:57;;;;;;;31.77;18.95;;;;;;;-2.10;81.85;98146.27;1815490;79;21268;-75
2020/12/10 01:22:25;;;;;;;28.57;16.12;;;;;;;-2.09;81.89;98144.53;1815407;78;20920;-75
2020/12/10 01:24:53;;;;;;;30.75;16.48;;;;;;;-2.10;81.89;98127.85;1815592;79;20972;-75
2020/12/10 01:27:22;;;;;;;25.70;15.03;;;;;;;-2.07;81.90;98124.30;1815439;79;20877;-75
2020/12/10 01:29:50;;;;;;;25.02;18.17;;;;;;;-2.06;81.87;98118.14;1815600;79;21750;-75
2020/12/10 01:32:25;;;;;;;25.75;13.35;;;;;;;-2.07;81.88;98117.26;1815475;79;22154;-76
2020/12/10 01:34:54;;;;;;;34.67;18.35;;;;;;;-2.05;81.93;98114.16;1815508;79;20991;-75
2020/12/10 01:37:22;;;;;;;31.48;17.73;;;;;;;-2.05;81.97;98106.70;1815490;79;20932;-75
2020/12/10 01:39:49;;;;;;;31.52;17.48;;;;;;;-2.02;81.94;98107.94;1815401;79;20908;-74
2020/12/10 01:42:17;;;;;;;30.77;18.75;;;;;;;-1.99;81.96;98109.19;1815368;79;21089;-74
2020/12/10 01:44:44;;;;;;;31.12;18.23;;;;;;;-1.98;81.90;98102.18;1815445;79;21188;-75
2020/12/10 01:47:12;;;;;;;32.25;16.95;;;;;;;-1.96;81.82;98092.01;1815373;79;21027;-75
2020/12/10 01:49:40;;;;;;;33.08;17.42;;;;;;;-1.96;81.74;98079.31;1815461;79;20920;-75
2020/12/10 01:52:07;;;;;;;32.05;17.98;;;;;;;-1.95;81.75;98084.54;1786259;79;20908;-74
2020/12/10 01:54:35;;;;;;;32.03;18.60;;;;;;;-1.95;81.80;98084.54;1815536;79;20917;-76
2020/12/10 01:57:02;;;;;;;29.42;16.75;;;;;;;-1.94;81.82;98067.85;1815539;79;22297;-74
2020/12/10 01:59:30;;;;;;;27.77;17.32;;;;;;;-1.94;81.80;98074.86;1815363;79;20924;-74
2020/12/10 02:01:58;;;;;;;32.23;16.55;;;;;;;-1.95;81.78;98076.64;1815502;78;20924;-74
2020/12/10 02:04:36;;;;;;;29.32;16.95;;;;;;;-1.96;81.95;98064.37;1815511;79;20905;-74
2020/12/10 02:07:04;;;;;;;28.52;16.65;;;;;;;-1.97;81.92;98063.98;1815571;79;21389;-74
2020/12/10 02:09:32;;;;;;;32.23;16.62;;;;;;;-1.98;82.06;98068.81;1815480;79;21279;-74
2020/12/10 02:12:00;;;;;;;28.30;16.42;;;;;;;-2.00;82.09;98066.68;1815326;79;20908;-74
2020/12/10 02:14:34;;;;;;;25.60;16.40;;;;;;;-1.98;82.08;98056.97;1815574;79;21342;-74
2020/12/10 02:17:07;;;;;;;24.80;16.15;;;;;;;-1.97;82.13;98062.66;1815548;79;21417;-74
2020/12/10 02:19:35;;;;;;;26.70;14.68;;;;;;;-1.98;82.15;98049.08;1815601;79;21378;-74
2020/12/10 02:22:03;;;;;;;22.75;14.28;;;;;;;-1.94;82.03;98041.53;1815430;79;21410;-75
2020/12/10 02:24:31;;;;;;;25.77;15.90;;;;;;;-1.93;81.98;98051.14;1815517;79;21441;-74
2020/12/10 02:26:58;;;;;;;20.45;15.00;;;;;;;-1.92;81.95;98037.08;1815351;79;20920;-75
2020/12/10 02:29:27;;;;;;;22.82;14.25;;;;;;;-1.93;81.95;98035.34;1815456;79;20924;-75
2020/12/10 02:31:55;;;;;;;23.87;14.40;;;;;;;-1.92;81.94;98029.65;1815451;78;20963;-75
2020/12/10 02:34:23;;;;;;;21.42;14.45;;;;;;;-1.92;81.90;98023.06;1815477;79;21807;-75
2020/12/10 02:36:52;;;;;;;20.85;13.98;;;;;;;-1.91;81.94;98036.16;1815425;79;21011;-76
2020/12/10 02:39:20;;;;;;;24.30;16.40;;;;;;;-1.90;82.01;98022.56;1815400;79;20920;-75
2020/12/10 02:41:48;;;;;;;25.72;13.83;;;;;;;-1.90;82.01;98019.47;1815358;79;20915;-75
2020/12/10 02:44:15;;;;;;;20.17;13.45;;;;;;;-1.90;81.97;98026.05;1801291;79;21338;-75
2020/12/10 02:46:43;;;;;;;21.15;12.90;;;;;;;-1.88;81.90;98028.19;1797778;79;21404;-75
2020/12/10 02:49:11;;;;;;;20.50;14.05;;;;;;;-1.89;81.89;98029.11;1797664;79;21413;-75
2020/12/10 02:51:43;;;;;;;22.32;14.87;;;;;;;-1.90;81.93;98014.20;1797823;79;20870;-75
2020/12/10 02:54:10;;;;;;;20.52;12.25;;;;;;;-1.87;81.89;98007.55;1797827;79;20933;-74
2020/12/10 02:56:38;;;;;;;21.77;15.90;;;;;;;-1.88;81.90;98009.76;1797839;79;20909;-74
2020/12/10 02:59:06;;;;;;;23.30;13.70;;;;;;;-1.88;81.84;98009.76;1797795;79;21675;-74
2020/12/10 03:01:35;;;;;;;23.70;13.83;;;;;;;-1.84;81.97;98008.79;1797700;79;21464;-74
2020/12/10 03:04:04;;;;;;;23.30;14.70;;;;;;;-1.86;81.89;98005.34;1797842;79;20996;-75
2020/12/10 03:06:32;;;;;;;25.85;14.15;;;;;;;-1.90;82.06;98001.05;1797744;79;20960;-75
2020/12/10 03:09:00;;;;;;;25.32;15.50;;;;;;;-1.93;82.27;97994.54;1797942;79;21322;-74
2020/12/10 03:11:27;;;;;;;23.05;14.53;;;;;;;-1.93;82.33;97985.33;1797867;79;21350;-74
2020/12/10 03:13:55;;;;;;;20.02;12.70;;;;;;;-1.93;82.52;97997.17;1797694;79;20966;-74
2020/12/10 03:16:23;;;;;;;23.35;13.50;;;;;;;-1.93;82.59;97983.16;1797885;79;20945;-74
2020/12/10 03:18:51;;;;;;;21.77;13.80;;;;;;;-1.93;82.71;97974.80;1797767;79;21004;-74
2020/12/10 03:21:19;;;;;;;20.10;12.93;;;;;;;-1.90;82.72;97969.92;1797772;79;20908;-74
2020/12/10 03:23:47;;;;;;;22.17;15.30;;;;;;;-1.90;82.83;97961.56;1797843;79;21807;-74
2020/12/10 03:26:14;;;;;;;21.50;15.80;;;;;;;-1.88;82.85;97965.47;1797777;79;20980;-75
2020/12/10 03:28:43;;;;;;;22.58;15.90;;;;;;;-1.87;82.86;97966.75;1797882;79;20973;-75
2020/12/10 03:31:10;;;;;;;23.60;15.28;;;;;;;-1.85;82.73;97959.66;1797838;79;21458;-74
2020/12/10 03:33:37;;;;;;;29.95;15.28;;;;;;;-1.87;82.86;97953.58;1797851;79;20897;-74
2020/12/10 03:36:06;;;;;;;26.45;15.08;;;;;;;-1.86;82.83;97955.75;1797824;79;22231;-74
2020/12/10 03:38:34;;;;;;;21.93;15.53;;;;;;;-1.87;82.87;97953.58;1797780;79;21406;-74
2020/12/10 03:41:05;;;;;;;27.93;15.20;;;;;;;-1.89;82.99;97944.88;1797725;79;20921;-75
2020/12/10 03:43:34;;;;;;;23.80;15.03;;;;;;;-1.86;83.03;97954.00;1797820;77;21393;-75
2020/12/10 03:46:01;;;;;;;20.10;13.25;;;;;;;-1.86;83.09;97940.84;1797840;79;21011;-75
2020/12/10 03:48:29;;;;;;;21.68;14.85;;;;;;;-1.85;83.13;97935.11;1797714;79;21358;-75
2020/12/10 03:50:57;;;;;;;23.52;15.03;;;;;;;-1.93;83.19;97919.52;1797804;79;21434;-74
2020/12/10 03:53:24;;;;;;;23.38;14.45;;;;;;;-1.92;83.41;97929.16;1797815;79;21418;-74
2020/12/10 03:55:52;;;;;;;30.05;16.93;;;;;;;-1.92;83.52;97931.80;1797716;79;21007;-75
2020/12/10 03:58:20;;;;;;;23.65;14.18;;;;;;;-1.92;83.71;97931.80;1797916;79;21342;-75
2020/12/10 04:00:47;;;;;;;26.60;16.00;;;;;;;-1.89;83.70;97917.66;1797709;79;21421;-74
2020/12/10 04:03:15;;;;;;;23.32;15.95;;;;;;;-1.89;83.62;97910.65;1797840;79;21366;-74
2020/12/10 04:05:43;;;;;;;23.10;14.65;;;;;;;-1.88;83.68;97911.50;1797713;79;20992;-74
2020/12/10 04:08:10;;;;;;;28.83;15.18;;;;;;;-1.86;83.68;97918.47;1797690;79;20924;-74
2020/12/10 04:10:37;;;;;;;22.30;15.03;;;;;;;-1.86;83.73;97913.20;1797712;79;20870;-74
2020/12/10 04:13:06;;;;;;;24.85;13.85;;;;;;;-1.84;83.66;97907.89;1797873;79;22202;-74
2020/12/10 04:15:33;;;;;;;26.95;16.48;;;;;;;-1.88;83.62;97904.46;1797701;79;20992;-74
2020/12/10 04:18:00;;;;;;;23.18;15.32;;;;;;;-1.89;83.63;97900.13;1797724;79;20924;-74
2020/12/10 04:20:28;;;;;;;25.17;14.98;;;;;;;-1.89;83.85;97904.50;1797804;79;20972;-74
2020/12/10 04:22:55;;;;;;;24.72;15.20;;;;;;;-1.87;84.05;97915.41;1797728;79;20981;-75
2020/12/10 04:25:23;;;;;;;24.30;14.73;;;;;;;-1.85;83.96;97910.95;1797787;79;21890;-75
2020/12/10 04:27:51;;;;;;;28.27;15.75;;;;;;;-1.83;83.93;97917.50;1797624;79;20998;-74
2020/12/10 04:30:21;;;;;;;19.90;13.28;;;;;;;-1.83;83.94;97910.48;1797780;79;20913;-74
2020/12/10 04:32:48;;;;;;;21.90;14.33;;;;;;;-1.78;83.89;97906.84;1797736;79;21346;-74
2020/12/10 04:35:18;;;;;;;24.15;14.78;;;;;;;-1.80;83.73;97904.72;1797687;79;20921;-74
2020/12/10 04:37:46;;;;;;;22.87;14.80;;;;;;;-1.80;83.84;97907.34;1797785;79;21373;-74
2020/12/10 04:40:13;;;;;;;22.58;15.00;;;;;;;-1.81;83.89;97899.91;1797828;79;21409;-75
2020/12/10 04:42:43;;;;;;;26.30;15.38;;;;;;;-1.79;83.90;97902.50;1797812;79;21466;-75
2020/12/10 04:45:11;;;;;;;24.60;16.42;;;;;;;-1.78;83.87;97897.63;1813522;79;20873;-74
2020/12/10 04:47:38;;;;;;;22.50;15.38;;;;;;;-1.78;83.93;97902.47;1815464;79;20904;-74
2020/12/10 04:50:15;;;;;;;22.13;13.95;;;;;;;-1.75;83.96;97899.75;1815485;79;21372;-75
2020/12/10 04:52:36;;;;;;;19.62;12.58;;;;;;;-1.73;83.96;97890.48;1814351;79;20962;-75
2020/12/10 04:55:03;;;;;;;19.75;11.80;;;;;;;-1.75;83.91;97893.59;1815595;79;21008;-76
2020/12/10 04:57:34;;;;;;;22.77;14.68;;;;;;;-1.75;83.87;97890.97;1815444;79;21007;-76
2020/12/10 05:00:04;;;;;;;19.10;13.55;;;;;;;-1.80;83.84;97887.61;1815501;79;21011;-75
2020/12/10 05:02:33;;;;;;;19.90;14.05;;;;;;;-1.85;84.01;97882.00;1815500;79;21429;-74
2020/12/10 05:05:04;;;;;;;19.27;13.10;;;;;;;-1.87;84.19;97877.23;1815441;79;20936;-75
2020/12/10 05:07:38;;;;;;;20.52;13.88;;;;;;;-1.86;84.39;97878.98;1811309;79;21010;-75
2020/12/10 05:10:07;;;;;;;16.62;12.23;;;;;;;-1.84;84.41;97879.79;1815453;78;20924;-75
2020/12/10 05:12:34;;;;;;;20.60;14.45;;;;;;;-1.81;84.41;97876.22;1815479;79;20975;-73
2020/12/10 05:15:02;;;;;;;18.25;11.80;;;;;;;-1.79;84.43;97884.08;1815514;78;21804;-76
2020/12/10 05:17:30;;;;;;;22.02;13.60;;;;;;;-1.77;84.46;97882.25;1815377;78;20892;-76
2020/12/10 05:19:58;;;;;;;18.10;12.65;;;;;;;-1.76;84.42;97884.84;1815472;79;20928;-75
2020/12/10 05:22:25;;;;;;;14.58;10.05;;;;;;;-1.75;84.63;97880.43;1815367;79;20980;-76
2020/12/10 05:25:04;;;;;;;14.10;11.30;;;;;;;-1.74;84.56;97878.22;1815518;79;20995;-76
2020/12/10 05:27:32;;;;;;;15.48;11.57;;;;;;;-1.75;84.43;97875.16;1815477;78;21190;-75
2020/12/10 05:30:01;;;;;;;15.28;11.33;;;;;;;-1.79;84.48;97866.97;1815451;78;21473;-75
2020/12/10 05:32:36;;;;;;;14.95;10.82;;;;;;;-1.79;84.63;97871.77;1815320;79;20932;-74
2020/12/10 05:35:23;;;;;;;14.23;10.98;;;;;;;-1.76;84.55;97870.83;1815256;79;21037;-74
2020/12/10 05:37:53;;;;;;;13.90;10.20;;;;;;;-1.74;84.49;97862.42;1815388;79;20904;-74
2020/12/10 05:40:21;;;;;;;13.58;10.58;;;;;;;-1.73;84.35;97868.96;1815529;79;22149;-75
2020/12/10 05:42:51;;;;;;;12.65;9.68;;;;;;;-1.74;84.25;97866.37;1815396;79;20939;-75
2020/12/10 05:45:22;;;;;;;12.33;9.05;;;;;;;-1.70;84.29;97866.70;1779770;79;20908;-76
2020/12/10 05:47:57;;;;;;;14.50;10.65;;;;;;;-1.68;84.29;97867.05;1807930;79;20999;-75
2020/12/10 05:50:28;;;;;;;10.17;7.83;;;;;;;-1.65;84.20;97867.43;1809175;79;20968;-75
2020/12/10 05:53:08;;;;;;;9.08;7.33;;;;;;;-1.62;84.07;97868.66;1808922;79;21610;-74
2020/12/10 05:55:42;;;;;;;10.28;8.45;;;;;;;-1.62;83.84;97875.24;1808768;79;21003;-75
2020/12/10 05:58:10;;;;;;;12.30;8.75;;;;;;;-1.61;83.88;97874.31;1808912;79;21445;-75
2020/12/10 06:00:37;;;;;;;10.53;8.18;;;;;;;-1.60;83.83;97869.47;1808783;79;20861;-76
2020/12/10 06:03:05;;;;;;;8.80;7.87;;;;;;;-1.57;83.83;97868.53;1808831;79;20917;-75
2020/12/10 06:05:38;;;;;;;10.13;7.87;;;;;;;-1.56;83.78;97871.12;1808924;79;21258;-75
2020/12/10 06:08:08;;;;;;;9.53;7.62;;;;;;;-1.55;83.77;97875.45;1778257;79;20972;-75
2020/12/10 06:10:39;;;;;;;10.18;8.95;;;;;;;-1.52;83.72;97872.73;1808606;79;20905;-75
2020/12/10 06:13:10;;;;;;;9.33;7.40;;;;;;;-1.50;83.66;97876.20;1808971;79;21349;-75
2020/12/10 06:15:38;;;;;;;16.82;11.65;;;;;;;-1.48;83.55;97872.21;1808875;79;20995;-75
2020/12/10 06:18:11;;;;;;;9.48;8.08;;;;;;;-1.45;83.49;97874.77;1808820;79;22328;-75
2020/12/10 06:20:42;;;;;;;10.13;7.58;;;;;;;-1.43;83.47;97876.00;1808895;79;21465;-75
2020/12/10 06:23:31;;;;;;;11.83;9.23;;;;;;;-1.41;83.41;97868.94;1808970;79;20963;-75
2020/12/10 06:26:09;;;;;;;8.80;7.87;;;;;;;-1.40;83.29;97865.38;1808858;79;20916;-75
2020/12/10 06:28:36;;;;;;;10.48;8.18;;;;;;;-1.39;83.13;97859.20;1775380;79;20964;-74
2020/12/10 06:31:09;;;;;;;7.53;6.33;;;;;;;-1.38;83.03;97860.95;1808337;79;21333;-74
2020/12/10 06:33:43;;;;;;;7.22;5.90;;;;;;;-1.37;83.03;97862.64;1777232;79;21366;-75
2020/12/10 06:36:23;;;;;;;7.15;5.53;;;;;;;-1.37;83.05;97854.31;1809016;79;21370;-75
2020/12/10 06:38:51;;;;;;;9.10;6.00;;;;;;;-1.36;82.97;97849.43;1808962;79;21358;-74
2020/12/10 06:41:20;;;;;;;5.58;4.22;;;;;;;-1.33;82.86;97840.58;1808754;79;20873;-73
2020/12/10 06:43:48;;;;;;;6.80;5.28;;;;;;;-1.34;82.87;97842.36;1808674;77;21773;-74
2020/12/10 06:46:16;;;;;;;6.42;4.83;;;;;;;-1.33;82.85;97836.63;1804299;79;20979;-75
2020/12/10 06:48:49;;;;;;;5.87;4.80;;;;;;;-1.34;82.82;97837.09;1804307;79;20957;-74
2020/12/10 06:51:18;;;;;;;6.72;5.87;;;;;;;-1.34;82.79;97838.84;1804201;79;20865;-75
2020/12/10 06:54:07;;;;;;;8.43;5.72;;;;;;;-1.35;82.85;97837.14;1804358;79;21004;-75
2020/12/10 06:57:03;;;;;;;9.13;7.78;;;;;;;-1.36;82.75;97843.31;1799585;79;22473;-74
2020/12/10 06:59:42;;;;;;;10.78;8.78;;;;;;;-1.38;82.85;97839.87;1804146;79;20982;-73
2020/12/10 07:02:12;;;;;;;;;;;;;;;-1.37;82.96;97837.63;1806930;79;20912;-78
2020/12/10 07:04:50;;;;;;;7.35;6.50;;;;;;;-1.35;82.77;97835.83;1804331;79;20133;-74
2020/12/10 07:07:22;;;;;;;12.73;9.58;;;;;;;-1.35;82.80;97826.60;1804264;79;20900;-74
2020/12/10 07:09:59;;;;;;;6.28;5.65;;;;;;;-1.34;82.68;97830.94;1804422;79;22215;-74
2020/12/10 07:12:32;;;;;;;7.50;6.60;;;;;;;-1.33;82.66;97837.48;1804046;79;20941;-80
2020/12/10 07:15:12;;;;;;;6.80;5.87;;;;;;;-1.30;82.53;97832.59;1804073;79;20932;-78
2020/12/10 07:17:41;;;;;;;10.72;6.78;;;;;;;-1.30;82.27;97835.22;1804294;79;20909;-78
2020/12/10 07:20:09;;;;;;;13.10;8.85;;;;;;;-1.28;82.22;97832.08;1804344;79;21055;-78
2020/12/10 07:22:37;;;;;;;22.32;16.02;;;;;;;-1.28;82.24;97833.39;1804372;79;21488;-81
2020/12/10 07:25:04;;;;;;;8.45;6.60;;;;;;;-1.29;82.00;97829.91;1804253;79;20968;-77
2020/12/10 07:27:34;;;;;;;8.93;6.92;;;;;;;-1.27;81.98;97833.81;1804334;79;21568;-78
2020/12/10 07:30:04;;;;;;;10.28;7.72;;;;;;;-1.28;81.97;97828.13;1804366;79;21599;-76
2020/12/10 07:32:32;;;;;;;10.03;7.45;;;;;;;-1.30;81.88;97824.68;1803790;79;21460;-79
2020/12/10 07:35:00;;;;;;;16.85;13.38;;;;;;;-1.28;81.80;97824.17;1804434;79;22283;-79
2020/12/10 07:37:31;;;;;;;11.25;7.65;;;;;;;-1.28;81.68;97817.58;1804382;79;21338;-78
2020/12/10 07:40:10;;;;;;;10.15;7.33;;;;;;;-1.27;81.60;97811.41;1804320;79;20869;-76
2020/12/10 07:42:38;;;;;;;18.85;13.85;;;;;;;-1.27;81.53;97808.78;1803054;79;20905;-80
2020/12/10 07:45:14;;;;;;;27.05;17.12;;;;;;;-1.24;81.38;97812.64;1801510;78;20905;-80
2020/12/10 07:47:42;;;;;;;11.97;8.30;;;;;;;-1.22;81.50;97817.39;1797939;79;22209;-81
2020/12/10 07:50:23;;;;;;;6.20;5.55;;;;;;;-1.19;81.31;97813.81;1797974;79;21462;-80
2020/12/10 07:52:55;;;;;;;8.58;6.12;;;;;;;-1.18;81.30;97801.91;1797824;79;20949;-79
2020/12/10 07:55:27;;;;;;;8.10;6.67;;;;;;;-1.15;81.31;97794.34;1797863;79;21437;-80
2020/12/10 07:58:18;;;;;;;8.13;5.27;;;;;;;-1.14;80.93;97792.97;1798115;79;20996;-81
2020/12/10 08:00:47;;;;;;;8.20;5.75;;;;;;;-1.11;80.70;97799.46;1797768;79;21358;-78
2020/12/10 08:03:21;;;;;;;5.42;4.10;;;;;;;-1.10;80.54;97799.03;1797830;79;21367;-80
2020/12/10 08:06:09;;;;;;;6.28;5.03;;;;;;;-1.10;80.39;97794.61;1797853;79;20933;-80
2020/12/10 08:08:42;;;;;;;12.55;9.10;;;;;;;-1.10;80.51;97806.47;1797770;79;21326;-80
2020/12/10 08:11:18;;;;;;;11.75;8.03;;;;;;;-1.10;80.54;97803.83;1797970;79;20874;-79
2020/12/10 08:14:09;;;;;;;5.65;4.92;;;;;;;-1.08;80.73;97808.20;1797951;79;22228;-77
2020/12/10 08:16:42;;;;;;;5.33;4.83;;;;;;;-1.08;80.75;97801.61;1797795;79;20960;-79
2020/12/10 08:19:16;;;;;;;5.17;4.00;;;;;;;-1.06;80.78;97815.13;1797950;79;21341;-79
2020/12/10 08:21:44;;;;;;;4.47;3.75;;;;;;;-1.07;80.64;97805.95;1798295;79;28040;-77
2020/12/10 08:24:13;;;;;;;6.40;4.45;;;;;;;-1.04;80.49;97801.91;1798080;79;20996;-81
2020/12/10 08:26:41;;;;;;;17.37;12.37;;;;;;;-1.04;80.34;97787.41;1798107;79;22627;-79
2020/12/10 08:29:14;;;;;;;8.63;6.72;;;;;;;-1.01;80.47;97791.27;1797929;79;21025;-80
2020/12/10 08:31:42;;;;;;;7.50;5.78;;;;;;;-1.01;80.52;97801.80;1798140;79;21016;-78
2020/12/10 08:34:20;;;;;;;8.60;5.85;;;;;;;-1.00;80.36;97803.55;1798178;79;20924;-80
2020/12/10 08:36:49;;;;;;;6.95;5.05;;;;;;;-0.99;80.21;97806.13;1798361;79;20913;-78
2020/12/10 08:39:16;;;;;;;6.22;5.62;;;;;;;-0.96;80.31;97802.55;1798387;79;22632;-78
2020/12/10 08:41:44;;;;;;;6.83;4.53;;;;;;;-0.94;80.32;97791.02;1797986;79;20973;-78
2020/12/10 08:44:12;;;;;;;5.72;5.22;;;;;;;-0.93;80.28;97793.19;1798288;79;20972;-78
2020/12/10 08:46:40;;;;;;;5.22;4.72;;;;;;;-0.91;80.32;97798.83;1798049;77;20913;-77
2020/12/10 08:49:19;;;;;;;6.12;4.25;;;;;;;-0.90;80.20;97794.41;1798176;79;20917;-77
2020/12/10 08:51:50;;;;;;;5.15;4.00;;;;;;;-0.89;80.13;97788.23;1798117;79;21336;-78
2020/12/10 08:54:17;;;;;;;7.50;5.22;;;;;;;-0.87;80.14;97781.12;1798008;79;20928;-78
2020/12/10 08:56:44;;;;;;;5.87;4.58;;;;;;;-0.85;80.24;97783.70;1798037;79;20952;-76
2020/12/10 08:59:12;;;;;;;6.47;5.22;;;;;;;-0.81;80.12;97793.25;1798044;79;21027;-76
2020/12/10 09:01:52;;;;;;;4.30;3.90;;;;;;;-0.79;79.80;97795.38;1798020;79;21446;-74
2020/12/10 09:04:20;;;;;;;6.87;6.17;;;;;;;-0.76;79.65;97782.97;1797987;79;21411;-76
2020/12/10 09:06:51;;;;;;;12.37;7.53;;;;;;;-0.74;79.39;97775.86;1798101;79;20929;-83
2020/12/10 09:09:21;;;;;;;5.97;4.70;;;;;;;-0.68;79.67;97779.19;1795802;79;20956;-71
2020/12/10 09:11:51;;;;;;;5.33;4.83;;;;;;;-0.67;79.64;97769.05;1797644;79;20924;-76
2020/12/10 09:14:19;;;;;;;7.95;7.25;;;;;;;-0.65;79.47;97750.92;1798080;79;20877;-75
2020/12/10 09:16:46;;;;;;;6.75;6.15;;;;;;;-0.63;79.42;97758.35;1797954;79;21347;-72
2020/12/10 09:19:14;;;;;;;6.67;5.97;;;;;;;-0.58;79.23;97763.47;1797996;79;21417;-69
2020/12/10 09:21:41;;;;;;;6.60;5.58;;;;;;;-0.55;79.32;97771.28;1798241;79;20917;-80
2020/12/10 09:24:10;;;;;;;6.05;3.83;;;;;;;-0.52;79.47;97773.81;1798473;79;20906;-79
2020/12/10 09:26:38;;;;;;;4.95;4.45;;;;;;;-0.49;79.03;97767.55;1798435;79;20905;-78
2020/12/10 09:29:05;;;;;;;8.80;7.33;;;;;;;-0.46;79.21;97757.73;1798355;79;21625;-69
2020/12/10 09:31:34;;;;;;;7.10;5.00;;;;;;;-0.40;79.44;97762.80;1797955;79;20976;-75
2020/12/10 09:34:03;;;;;;;6.45;5.62;;;;;;;-0.35;79.47;97756.51;1797969;79;21000;-76
2020/12/10 09:36:32;;;;;;;6.53;5.78;;;;;;;-0.25;79.17;97757.92;1797907;79;20870;-75
2020/12/10 09:39:00;;;;;;;6.20;5.58;;;;;;;-0.22;78.83;97757.77;1798031;79;20889;-76
2020/12/10 09:41:31;;;;;;;6.37;5.17;;;;;;;-0.16;78.58;97747.47;1797863;79;21881;-76
2020/12/10 09:43:58;;;;;;;5.33;4.72;;;;;;;-0.13;78.28;97742.08;1797905;79;20909;-76
2020/12/10 09:46:28;;;;;;;7.67;6.25;;;;;;;-0.07;78.14;97746.66;1802401;79;20964;-75
2020/12/10 09:48:56;;;;;;;6.85;5.97;;;;;;;-0.03;78.05;97733.77;1751920;79;20976;-75
2020/12/10 09:51:27;;;;;;;7.37;6.28;;;;;;;0.02;78.22;97745.47;1804350;79;20952;-76
2020/12/10 09:54:04;;;;;;;5.62;5.12;;;;;;;0.05;77.90;97731.27;1804392;79;21799;-76
2020/12/10 09:59:14;;;;;;;7.62;5.50;;;;;;;0.12;77.85;97740.70;1804413;79;20917;-75
2020/12/10 10:01:45;;;;;;;7.05;5.20;;;;;;;0.14;77.79;97748.09;1804339;79;20885;-74
2020/12/10 10:04:12;;;;;;;5.78;5.08;;;;;;;0.15;77.74;97740.59;1804444;79;20996;-76
2020/12/10 10:06:42;;;;;;;4.65;4.25;;;;;;;0.16;77.65;97747.60;1804423;79;22315;-75
2020/12/10 10:09:11;;;;;;;7.03;5.12;;;;;;;0.14;77.28;97744.14;1804423;79;21350;-74
2020/12/10 10:11:40;;;;;;;6.55;5.28;;;;;;;0.15;77.74;97733.98;1804392;79;21323;-71
2020/12/10 10:14:09;;;;;;;5.22;4.72;;;;;;;0.14;78.07;97738.86;1804429;79;21322;-71
2020/12/10 10:16:38;;;;;;;6.70;5.15;;;;;;;0.13;77.74;97728.77;1804395;79;20936;-70
2020/12/10 10:19:06;;;;;;;6.83;5.83;;;;;;;0.15;77.69;97720.78;1804397;79;21349;-71
2020/12/10 10:21:33;;;;;;;5.70;5.20;;;;;;;0.14;77.68;97709.80;1804336;79;21406;-71
2020/12/10 10:24:00;;;;;;;7.80;5.25;;;;;;;0.16;77.91;97707.98;1804384;79;20909;-72
2020/12/10 10:26:28;;;;;;;4.87;4.47;;;;;;;0.17;77.52;97702.65;1804311;79;20865;-70
2020/12/10 10:28:57;;;;;;;8.25;5.05;;;;;;;0.18;77.30;97702.18;1804354;79;20964;-71
2020/12/10 10:31:25;;;;;;;5.95;4.92;;;;;;;0.19;77.00;97692.03;1804364;79;22297;-71
2020/12/10 10:33:55;;;;;;;5.95;5.22;;;;;;;0.21;77.15;97694.61;1804311;79;20968;-70
2020/12/10 10:36:22;;;;;;;6.87;5.35;;;;;;;0.24;77.20;97687.41;1804329;79;21023;-72
2020/12/10 10:38:50;;;;;;;5.00;4.50;;;;;;;0.25;77.40;97685.16;1804393;79;20865;-71
2020/12/10 10:41:18;;;;;;;5.12;4.62;;;;;;;0.27;77.45;97687.30;1804286;79;21330;-70
2020/12/10 10:43:47;;;;;;;6.08;5.05;;;;;;;0.29;77.58;97694.69;1804310;79;21165;-71
2020/12/10 10:46:19;;;;;;;6.75;5.72;;;;;;;0.31;77.37;97692.84;1800962;79;21022;-71
2020/12/10 10:48:46;;;;;;;6.35;5.72;;;;;;;0.34;77.48;97691.40;1797827;79;20972;-72
2020/12/10 10:51:14;;;;;;;5.60;5.03;;;;;;;0.37;77.58;97695.71;1797730;79;21303;-71
2020/12/10 10:53:42;;;;;;;6.05;5.03;;;;;;;0.39;77.35;97698.30;1797923;79;21445;-74
2020/12/10 10:56:09;;;;;;;6.15;5.55;;;;;;;0.42;77.39;97697.70;1797831;79;21354;-71
2020/12/10 10:58:38;;;;;;;6.78;6.08;;;;;;;0.45;77.05;97708.63;1797802;79;20925;-71
2020/12/10 11:01:07;;;;;;;8.00;5.78;;;;;;;0.44;77.17;97710.41;1797908;79;20920;-72
2020/12/10 11:03:34;;;;;;;11.10;6.87;;;;;;;0.46;77.06;97710.36;1797922;79;20985;-71
2020/12/10 11:06:02;;;;;;;7.58;5.95;;;;;;;0.46;77.31;97713.00;1797841;79;21004;-73
2020/12/10 11:08:31;;;;;;;6.80;6.10;;;;;;;0.45;77.29;97702.87;1797839;79;22103;-72
2020/12/10 11:10:59;;;;;;;7.42;6.45;;;;;;;0.45;77.32;97706.83;1797736;79;20889;-73
2020/12/10 11:13:26;;;;;;;11.12;10.03;;;;;;;0.45;77.51;97703.34;1797843;79;20976;-72
2020/12/10 11:15:55;;;;;;;6.25;5.62;;;;;;;0.46;77.71;97702.43;1797785;79;20964;-71
2020/12/10 11:18:24;;;;;;;6.20;5.55;;;;;;;0.43;77.64;97698.11;1797873;79;20992;-71
2020/12/10 11:20:51;;;;;;;6.12;5.03;;;;;;;0.43;77.73;97682.73;1797831;79;21376;-72
2020/12/10 11:23:21;;;;;;;7.08;6.28;;;;;;;0.46;77.69;97674.69;1797893;79;21354;-72
2020/12/10 11:25:48;;;;;;;7.95;6.35;;;;;;;0.50;77.88;97670.98;1797822;79;20873;-71
2020/12/10 11:28:15;;;;;;;7.92;7.12;;;;;;;0.51;77.93;97666.95;1797755;79;20981;-72
2020/12/10 11:30:42;;;;;;;7.78;6.97;;;;;;;0.51;77.74;97676.67;1797855;79;21019;-73
2020/12/10 11:33:10;;;;;;;6.50;5.80;;;;;;;0.51;77.78;97669.59;1797849;79;21799;-73
2020/12/10 11:35:37;;;;;;;6.97;5.58;;;;;;;0.55;77.72;97662.39;1797774;79;20913;-71
2020/12/10 11:38:06;;;;;;;6.00;5.40;;;;;;;0.57;77.84;97672.46;1797811;79;20992;-71
2020/12/10 11:40:33;;;;;;;7.10;5.97;;;;;;;0.60;77.69;97667.50;1797746;79;20925;-74